createdAt,value
2022-11-28T00:01:27.950Z,8.78
2022-11-28T00:03:54.773Z,8.74
2022-11-28T00:06:21.899Z,8.29
2022-11-28T00:08:48.600Z,8.26
2022-11-28T00:11:16.490Z,8.45
2022-11-28T00:13:44.088Z,8.61
2022-11-28T00:16:15.844Z,8.05
2022-11-28T00:18:42.369Z,8.11
2022-11-28T00:21:11.703Z,7.83
2022-11-28T00:23:38.776Z,8.46
2022-11-28T00:26:17.419Z,8.21
2022-11-28T00:28:43.882Z,8.11
2022-11-28T00:31:18.815Z,8.20
2022-11-28T00:33:45.879Z,7.87
2022-11-28T00:36:12.674Z,7.81
2022-11-28T00:38:39.223Z,7.78
2022-11-28T00:41:10.078Z,8.16
2022-11-28T00:43:37.195Z,7.90
2022-11-28T00:46:04.258Z,8.11
2022-11-28T00:48:32.700Z,8.32
2022-11-28T00:51:11.005Z,8.25
2022-11-28T00:53:40.402Z,7.86
2022-11-28T00:56:07.896Z,7.81
2022-11-28T00:58:35.816Z,7.66
2022-11-28T01:01:14.547Z,7.63
2022-11-28T01:03:42.390Z,7.90
2022-11-28T01:06:10.279Z,7.76
2022-11-28T01:08:37.453Z,7.98
2022-11-28T01:11:11.332Z,8.50
2022-11-28T01:13:37.759Z,8.24
2022-11-28T01:16:04.388Z,7.97
2022-11-28T01:18:30.868Z,8.12
2022-11-28T01:20:57.331Z,8.39
2022-11-28T01:23:23.829Z,7.98
2022-11-28T01:25:50.293Z,8.33
2022-11-28T01:28:16.731Z,8.20
2022-11-28T01:30:43.180Z,8.27
2022-11-28T01:33:09.699Z,8.46
2022-11-28T01:35:36.134Z,8.41
2022-11-28T01:38:02.538Z,8.41
2022-11-28T01:40:28.999Z,7.96
2022-11-28T01:42:55.442Z,8.39
2022-11-28T01:45:23.741Z,7.48
2022-11-28T01:47:53.633Z,7.73
2022-11-28T01:50:22.485Z,7.92
2022-11-28T01:52:55.054Z,7.74
2022-11-28T01:55:24.548Z,8.10
2022-11-28T01:57:54.121Z,7.97
2022-11-28T02:00:21.632Z,8.09
2022-11-28T02:02:51.395Z,7.36
2022-11-28T02:05:20.957Z,6.93
2022-11-28T02:07:48.507Z,7.26
2022-11-28T02:10:26.121Z,7.28
2022-11-28T02:13:17.294Z,7.34
2022-11-28T02:16:11.365Z,7.17
2022-11-28T02:18:50.283Z,7.22
2022-11-28T02:21:22.952Z,7.88
2022-11-28T02:23:58.341Z,7.39
2022-11-28T02:26:51.277Z,7.55
2022-11-28T02:29:51.428Z,7.48
2022-11-28T02:32:34.666Z,7.83
2022-11-28T02:35:22.696Z,7.40
2022-11-28T02:38:37.506Z,7.10
2022-11-28T02:41:22.416Z,7.50
2022-11-28T02:43:49.868Z,7.11
2022-11-28T02:46:54.269Z,7.73
2022-11-28T02:49:47.189Z,7.12
2022-11-28T02:52:18.781Z,7.09
2022-11-28T02:54:46.258Z,7.03
2022-11-28T02:57:12.697Z,7.59
2022-11-28T02:59:39.059Z,7.32
2022-11-28T03:02:13.903Z,7.13
2022-11-28T03:04:53.453Z,7.15
2022-11-28T03:07:32.236Z,7.39
2022-11-28T03:09:58.697Z,7.38
2022-11-28T03:12:30.843Z,7.67
2022-11-28T03:15:07.457Z,7.59
2022-11-28T03:17:52.095Z,7.55
2022-11-28T03:20:37.393Z,7.59
2022-11-28T03:23:12.138Z,7.86
2022-11-28T03:26:10.579Z,8.11
2022-11-28T03:28:45.202Z,7.97
2022-11-28T03:31:16.450Z,8.09
2022-11-28T03:33:48.893Z,7.52
2022-11-28T03:36:21.196Z,7.59
2022-11-28T03:39:00.421Z,7.80
2022-11-28T03:41:35.619Z,7.70
2022-11-28T03:44:04.997Z,8.15
2022-11-28T03:46:38.967Z,7.91
2022-11-28T03:49:09.436Z,7.45
2022-11-28T03:51:49.513Z,6.88
2022-11-28T03:54:32.684Z,7.60
2022-11-28T03:57:06.904Z,7.60
2022-11-28T03:59:41.920Z,6.88
2022-11-28T04:02:52.606Z,6.81
2022-11-28T04:05:43.218Z,6.83
2022-11-28T04:08:14.561Z,6.85
2022-11-28T04:10:53.715Z,6.68
2022-11-28T04:13:44.037Z,6.71
2022-11-28T04:16:34.898Z,6.87
2022-11-28T04:19:18.672Z,6.59
2022-11-28T04:22:00.038Z,6.86
2022-11-28T04:24:31.732Z,6.46
2022-11-28T04:27:06.068Z,6.79
2022-11-28T04:29:38.752Z,6.62
2022-11-28T04:32:08.052Z,7.12
2022-11-28T04:34:36.223Z,6.68
2022-11-28T04:37:09.569Z,6.65
2022-11-28T04:39:38.215Z,6.57
2022-11-28T04:42:13.756Z,6.37
2022-11-28T04:44:43.355Z,6.70
2022-11-28T04:47:10.407Z,6.89
2022-11-28T04:49:37.729Z,6.88
2022-11-28T04:52:14.379Z,6.79
2022-11-28T04:54:46.691Z,6.59
2022-11-28T04:57:23.735Z,7.18
2022-11-28T04:59:51.578Z,6.90
2022-11-28T05:02:20.486Z,6.86
2022-11-28T05:04:47.482Z,6.70
2022-11-28T05:07:14.085Z,7.26
2022-11-28T05:09:40.574Z,7.43
2022-11-28T05:12:07.212Z,6.89
2022-11-28T05:14:33.690Z,7.24
2022-11-28T05:17:00.149Z,6.91
2022-11-28T05:19:26.597Z,7.02
2022-11-28T05:21:55.852Z,6.84
2022-11-28T05:24:29.313Z,7.17
2022-11-28T05:26:58.468Z,7.58
2022-11-28T05:29:25.646Z,7.50
2022-11-28T05:31:52.152Z,7.24
2022-11-28T05:34:18.655Z,7.64
2022-11-28T05:36:45.080Z,7.20
2022-11-28T05:39:11.499Z,7.59
2022-11-28T05:41:37.957Z,7.07
2022-11-28T05:44:04.436Z,7.58
2022-11-28T05:46:30.869Z,7.45
2022-11-28T05:48:57.657Z,7.51
2022-11-28T05:51:24.304Z,7.12
2022-11-28T05:53:51.038Z,7.38
2022-11-28T05:56:20.164Z,7.15
2022-11-28T05:58:46.630Z,7.23
2022-11-28T06:01:22.684Z,7.17
2022-11-28T06:03:49.169Z,7.28
2022-11-28T06:06:15.527Z,7.46
2022-11-28T06:08:42.709Z,7.20
2022-11-28T06:11:09.736Z,7.03
2022-11-28T06:13:36.733Z,7.21
2022-11-28T06:16:06.650Z,6.76
2022-11-28T06:18:33.083Z,6.87
2022-11-28T06:21:02.738Z,6.98
2022-11-28T06:23:29.385Z,7.19
2022-11-28T06:25:55.861Z,6.81
2022-11-28T06:28:22.277Z,7.05
2022-11-28T06:30:48.727Z,6.82
2022-11-28T06:33:15.198Z,6.93
2022-11-28T06:35:41.795Z,7.33
2022-11-28T06:38:13.952Z,6.88
2022-11-28T06:40:41.055Z,6.77
2022-11-28T06:43:07.511Z,7.02
2022-11-28T06:45:34.999Z,7.10
2022-11-28T06:48:02.050Z,7.36
2022-11-28T06:50:28.644Z,7.48
2022-11-28T06:52:55.680Z,7.76
2022-11-28T06:55:22.180Z,7.16
2022-11-28T06:57:48.691Z,7.30
2022-11-28T07:00:15.665Z,7.56
2022-11-28T07:02:42.134Z,7.38
2022-11-28T07:05:08.752Z,7.88
2022-11-28T07:07:49.996Z,7.32
2022-11-28T07:10:20.246Z,7.75
2022-11-28T07:12:46.975Z,7.71
2022-11-28T07:15:13.434Z,7.44
2022-11-28T07:17:39.863Z,7.55
2022-11-28T07:20:06.991Z,7.21
2022-11-28T07:22:33.453Z,7.34
2022-11-28T07:24:59.912Z,6.88
2022-11-28T07:27:26.410Z,7.21
2022-11-28T07:29:52.818Z,7.36
2022-11-28T07:32:19.262Z,6.94
2022-11-28T07:34:50.018Z,6.36
2022-11-28T07:37:16.748Z,7.02
2022-11-28T07:39:44.592Z,7.18
2022-11-28T07:42:14.497Z,7.24
2022-11-28T07:44:40.981Z,6.91
2022-11-28T07:47:07.467Z,6.81
2022-11-28T07:49:33.928Z,6.76
2022-11-28T07:52:01.055Z,7.22
2022-11-28T07:54:27.526Z,7.04
2022-11-28T07:59:40.775Z,7.06
2022-11-28T08:02:09.042Z,6.79
2022-11-28T08:04:37.129Z,6.82
2022-11-28T08:07:03.645Z,6.91
2022-11-28T08:09:31.795Z,7.01
2022-11-28T08:11:58.678Z,7.10
2022-11-28T08:14:25.372Z,6.70
2022-11-28T08:16:52.350Z,7.12
2022-11-28T08:19:22.944Z,6.89
2022-11-28T08:21:51.093Z,7.04
2022-11-28T08:24:17.578Z,6.76
2022-11-28T08:26:44.041Z,7.03
2022-11-28T08:29:10.903Z,6.93
2022-11-28T08:31:38.818Z,7.36
2022-11-28T08:34:10.855Z,7.27
2022-11-28T08:36:37.700Z,7.74
2022-11-28T08:41:56.935Z,7.15
2022-11-28T08:44:23.369Z,7.48
2022-11-28T08:46:49.820Z,7.55
2022-11-28T08:49:16.297Z,7.33
2022-11-28T08:51:42.856Z,6.85
2022-11-28T08:54:09.398Z,7.09
2022-11-28T08:56:35.864Z,7.64
2022-11-28T08:59:03.371Z,7.81
2022-11-28T09:01:29.949Z,7.17
2022-11-28T09:03:56.935Z,7.28
2022-11-28T09:06:23.985Z,7.47
2022-11-28T09:08:51.621Z,7.05
2022-11-28T09:11:20.553Z,7.10
2022-11-28T09:13:47.201Z,7.53
2022-11-28T09:16:14.810Z,7.53
2022-11-28T09:18:41.505Z,7.64
2022-11-28T09:21:09.807Z,7.11
2022-11-28T09:23:37.255Z,7.10
2022-11-28T09:26:15.468Z,7.30
2022-11-28T09:28:41.922Z,7.52
2022-11-28T09:31:09.072Z,7.43
2022-11-28T09:33:36.338Z,7.58
2022-11-28T09:36:08.119Z,7.57
2022-11-28T09:38:35.192Z,7.13
2022-11-28T09:41:02.934Z,7.27
2022-11-28T09:43:36.693Z,7.14
2022-11-28T09:46:07.858Z,7.03
2022-11-28T09:48:46.523Z,7.10
2022-11-28T09:51:34.593Z,7.71
2022-11-28T09:54:36.355Z,7.82
2022-11-28T09:57:08.704Z,7.47
2022-11-28T09:59:35.676Z,7.25
2022-11-28T10:02:29.274Z,7.46
2022-11-28T10:05:06.135Z,7.96
2022-11-28T10:07:56.905Z,7.84
2022-11-28T10:10:35.896Z,8.15
2022-11-28T10:13:41.174Z,8.00
2022-11-28T10:16:49.815Z,8.22
2022-11-28T10:19:53.248Z,8.59
2022-11-28T10:22:22.764Z,7.57
2022-11-28T10:24:56.142Z,8.05
2022-11-28T10:27:29.394Z,8.04
2022-11-28T10:30:03.998Z,8.14
2022-11-28T10:32:36.467Z,8.16
2022-11-28T10:35:10.334Z,8.00
2022-11-28T10:37:38.713Z,7.97
2022-11-28T10:40:20.933Z,7.96
2022-11-28T10:43:04.663Z,8.59
2022-11-28T10:46:09.470Z,8.42
2022-11-28T10:48:45.606Z,8.23
2022-11-28T10:51:32.281Z,8.40
2022-11-28T10:54:26.958Z,7.87
2022-11-28T10:57:36.560Z,7.74
2022-11-28T11:00:14.667Z,7.84
2022-11-28T11:02:46.077Z,7.76
2022-11-28T11:05:16.291Z,7.77
2022-11-28T11:07:55.040Z,7.66
2022-11-28T11:10:35.201Z,7.89
2022-11-28T11:13:14.581Z,7.78
2022-11-28T11:15:41.827Z,8.46
2022-11-28T11:18:32.638Z,8.19
2022-11-28T11:21:26.785Z,7.80
2022-11-28T11:24:17.161Z,7.59
2022-11-28T11:26:47.129Z,8.02
2022-11-28T11:29:29.281Z,7.80
2022-11-28T11:32:04.082Z,7.45
2022-11-28T11:34:36.372Z,7.67
2022-11-28T11:37:38.994Z,7.97
2022-11-28T11:40:22.710Z,7.97
2022-11-28T11:42:55.536Z,7.62
2022-11-28T11:45:34.061Z,8.10
2022-11-28T11:48:01.974Z,8.03
2022-11-28T11:50:30.757Z,7.94
2022-11-28T11:53:07.905Z,8.67
2022-11-28T11:55:44.512Z,8.66
2022-11-28T11:58:16.499Z,8.15
2022-11-28T12:00:43.470Z,8.02
2022-11-28T12:03:29.148Z,8.05
2022-11-28T12:06:20.672Z,8.10
2022-11-28T12:08:52.822Z,7.74
2022-11-28T12:11:25.383Z,8.02
2022-11-28T12:13:52.843Z,8.25
2022-11-28T12:16:43.601Z,7.81
2022-11-28T12:19:25.440Z,8.05
2022-11-28T12:22:08.580Z,8.34
2022-11-28T12:24:47.550Z,8.49
2022-11-28T12:27:35.195Z,8.10
2022-11-28T12:30:18.413Z,8.13
2022-11-28T12:33:12.661Z,8.49
2022-11-28T12:35:46.277Z,8.17
2022-11-28T12:38:24.879Z,8.40
2022-11-28T12:40:56.433Z,8.55
2022-11-28T12:43:47.435Z,8.10
2022-11-28T12:46:19.905Z,8.73
2022-11-28T12:49:04.899Z,9.06
2022-11-28T12:51:40.704Z,8.67
2022-11-28T12:54:28.605Z,8.19
2022-11-28T12:57:02.815Z,8.77
2022-11-28T12:59:35.490Z,9.19
2022-11-28T13:02:30.446Z,8.42
2022-11-28T13:05:02.982Z,8.21
2022-11-28T13:08:20.496Z,7.93
2022-11-28T13:11:08.423Z,8.38
2022-11-28T13:13:46.103Z,8.15
2022-11-28T13:16:26.996Z,8.87
2022-11-28T13:19:08.063Z,8.69
2022-11-28T13:21:43.845Z,8.59
2022-11-28T13:24:31.481Z,8.39
2022-11-28T13:27:22.268Z,8.65
2022-11-28T13:30:02.347Z,8.50
2022-11-28T13:32:32.780Z,8.48
2022-11-28T13:34:59.828Z,8.19
2022-11-28T13:40:45.868Z,8.44
2022-11-28T13:43:33.149Z,8.61
2022-11-28T13:46:00.117Z,8.65
2022-11-28T13:49:28.387Z,8.66
2022-11-28T13:52:19.306Z,8.45
2022-11-28T13:54:53.833Z,9.06
2022-11-28T13:57:39.698Z,8.65
2022-11-28T14:00:22.105Z,8.04
2022-11-28T14:02:53.650Z,8.56
2022-11-28T14:05:26.527Z,7.99
2022-11-28T14:07:56.006Z,9.00
2022-11-28T14:10:28.581Z,8.54
2022-11-28T14:13:16.314Z,8.85
2022-11-28T14:15:48.699Z,8.68
2022-11-28T14:18:55.635Z,8.64
2022-11-28T14:21:22.375Z,8.54
2022-11-28T14:23:58.082Z,8.38
2022-11-28T14:26:35.927Z,8.24
2022-11-28T14:29:06.214Z,8.34
2022-11-28T14:31:39.852Z,8.08
2022-11-28T14:34:30.533Z,8.28
2022-11-28T14:37:43.518Z,8.01
2022-11-28T14:40:48.512Z,8.04
2022-11-28T14:43:25.641Z,8.09
2022-11-28T14:46:12.723Z,8.23
2022-11-28T14:48:42.076Z,7.90
2022-11-28T14:51:09.422Z,8.41
2022-11-28T14:53:38.752Z,8.12
2022-11-28T14:56:22.369Z,8.26
2022-11-28T14:58:51.062Z,8.08
2022-11-28T15:01:55.269Z,7.92
2022-11-28T15:04:27.833Z,8.09
2022-11-28T15:06:55.383Z,8.05
2022-11-28T15:09:32.931Z,7.96
2022-11-28T15:12:12.610Z,7.85
2022-11-28T15:14:39.913Z,7.84
2022-11-28T15:17:13.093Z,7.92
2022-11-28T15:19:45.254Z,7.93
2022-11-28T15:22:38.992Z,8.47
2022-11-28T15:25:18.402Z,8.28
2022-11-28T15:27:45.103Z,8.35
2022-11-28T15:30:17.949Z,8.09
2022-11-28T15:32:45.010Z,8.33
2022-11-28T15:35:15.732Z,8.41
2022-11-28T15:37:51.948Z,8.24
2022-11-28T15:40:26.319Z,8.33
2022-11-28T15:42:52.906Z,8.44
2022-11-28T15:45:28.750Z,8.73
2022-11-28T15:47:56.636Z,8.69
2022-11-28T15:50:29.686Z,8.31
2022-11-28T15:53:00.288Z,8.07
2022-11-28T15:55:30.669Z,8.34
2022-11-28T15:58:20.245Z,8.39
2022-11-28T16:01:28.162Z,8.08
2022-11-28T16:03:56.916Z,8.21
2022-11-28T16:06:26.677Z,8.20
2022-11-28T16:08:54.905Z,8.36
2022-11-28T16:11:24.182Z,8.34
2022-11-28T16:13:52.586Z,8.24
2022-11-28T16:16:22.964Z,8.16
2022-11-28T16:19:01.726Z,7.88
2022-11-28T16:21:31.979Z,8.38
2022-11-28T16:24:00.614Z,8.03
2022-11-28T16:26:31.783Z,8.43
2022-11-28T16:29:05.406Z,7.85
2022-11-28T16:31:32.153Z,8.37
2022-11-28T16:33:59.925Z,8.21
2022-11-28T16:36:31.899Z,8.69
2022-11-28T16:39:15.650Z,8.44
2022-11-28T16:41:46.382Z,8.35
2022-11-28T16:44:15.580Z,8.58
2022-11-28T16:46:51.291Z,8.81
2022-11-28T16:49:40.608Z,8.94
2022-11-28T16:52:22.226Z,8.97
2022-11-28T16:54:53.644Z,8.95
2022-11-28T16:57:20.994Z,9.02
2022-11-28T16:59:48.801Z,9.11
2022-11-28T17:02:17.228Z,9.08
2022-11-28T17:04:44.329Z,9.06
2022-11-28T17:07:14.573Z,8.19
2022-11-28T17:09:42.508Z,8.70
2022-11-28T17:12:16.921Z,8.39
2022-11-28T17:14:44.205Z,8.43
2022-11-28T17:17:15.808Z,8.37
2022-11-28T17:19:43.255Z,8.59
2022-11-28T17:22:23.066Z,8.46
2022-11-28T17:24:51.674Z,8.37
2022-11-28T17:27:18.464Z,8.14
2022-11-28T17:29:45.039Z,8.57
2022-11-28T17:32:13.836Z,8.54
2022-11-28T17:34:43.999Z,8.71
2022-11-28T17:37:10.692Z,8.65
2022-11-28T17:39:37.735Z,8.54
2022-11-28T17:42:05.011Z,8.48
2022-11-28T17:44:34.502Z,8.69
2022-11-28T17:47:02.142Z,8.73
2022-11-28T17:49:29.446Z,8.76
2022-11-28T17:51:56.671Z,8.79
2022-11-28T17:54:24.674Z,8.81
2022-11-28T17:56:52.873Z,8.85
2022-11-28T17:59:21.499Z,8.77
2022-11-28T18:01:48.455Z,8.78
2022-11-28T18:04:15.074Z,8.75
2022-11-28T18:06:44.352Z,8.74
2022-11-28T18:09:12.309Z,8.75
2022-11-28T18:11:39.791Z,8.72
2022-11-28T18:14:06.573Z,8.67
2022-11-28T18:16:35.476Z,8.49
2022-11-28T18:19:02.387Z,8.48
2022-11-28T18:21:28.862Z,8.27
2022-11-28T18:23:55.967Z,8.36
2022-11-28T18:26:25.955Z,8.17
2022-11-28T18:28:53.231Z,8.40
2022-11-28T18:31:25.195Z,7.88
2022-11-28T18:33:56.145Z,8.37
2022-11-28T18:36:27.494Z,8.19
2022-11-28T18:38:55.731Z,8.41
2022-11-28T18:41:22.306Z,8.34
2022-11-28T18:43:48.974Z,7.95
2022-11-28T18:46:19.169Z,8.12
2022-11-28T18:48:47.061Z,8.29
2022-11-28T18:51:16.994Z,8.31
2022-11-28T18:53:47.170Z,8.08
2022-11-28T18:56:14.147Z,7.80
2022-11-28T18:58:43.728Z,7.72
2022-11-28T19:01:19.721Z,7.92
2022-11-28T19:03:50.935Z,7.82
2022-11-28T19:06:17.444Z,8.17
2022-11-28T19:08:43.993Z,7.95
2022-11-28T19:11:14.499Z,8.23
2022-11-28T19:13:42.551Z,8.10
2022-11-28T19:16:20.289Z,8.31
2022-11-28T19:18:46.803Z,8.17
2022-11-28T19:21:16.033Z,8.03
2022-11-28T19:23:42.485Z,8.40
2022-11-28T19:26:12.013Z,8.52
2022-11-28T19:28:40.233Z,8.45
2022-11-28T19:31:21.162Z,8.41
2022-11-28T19:34:01.328Z,8.44
2022-11-28T19:36:37.355Z,8.61
2022-11-28T19:39:04.473Z,8.20
2022-11-28T19:41:31.021Z,8.39
2022-11-28T19:43:57.726Z,8.19
2022-11-28T19:46:24.311Z,8.30
2022-11-28T19:48:51.695Z,7.87
2022-11-28T19:51:18.830Z,8.33
2022-11-28T19:53:45.236Z,8.03
2022-11-28T19:56:13.190Z,8.36
2022-11-28T19:58:40.152Z,8.20
2022-11-28T20:01:18.734Z,8.14
2022-11-28T20:03:49.838Z,7.91
2022-11-28T20:06:23.077Z,8.02
2022-11-28T20:08:51.615Z,7.82
2022-11-28T20:11:21.803Z,7.85
2022-11-28T20:13:49.562Z,7.84
2022-11-28T20:16:17.720Z,7.78
2022-11-28T20:18:45.047Z,8.15
2022-11-28T20:21:13.370Z,8.05
2022-11-28T20:23:51.487Z,8.54
2022-11-28T20:26:20.453Z,8.63
2022-11-28T20:28:48.106Z,8.43
2022-11-28T20:31:20.971Z,8.57
2022-11-28T20:33:49.037Z,8.49
2022-11-28T20:36:17.775Z,8.70
2022-11-28T20:38:44.619Z,8.58
2022-11-28T20:41:12.897Z,8.38
2022-11-28T20:43:40.199Z,8.62
2022-11-28T20:46:15.593Z,8.41
2022-11-28T20:48:42.254Z,8.34
2022-11-28T20:51:19.932Z,8.54
2022-11-28T20:53:46.877Z,8.56
2022-11-28T20:56:19.233Z,8.49
2022-11-28T20:58:46.196Z,8.35
2022-11-28T21:01:14.891Z,8.29
2022-11-28T21:03:41.492Z,8.53
2022-11-28T21:06:08.260Z,8.54
2022-11-28T21:08:35.548Z,8.28
2022-11-28T21:11:06.817Z,8.36
2022-11-28T21:13:33.516Z,8.65
2022-11-28T21:16:09.479Z,8.42
2022-11-28T21:18:37.930Z,8.58
2022-11-28T21:21:09.836Z,8.31
2022-11-28T21:23:37.930Z,8.61
2022-11-28T21:26:07.646Z,8.62
2022-11-28T21:28:39.054Z,8.41
2022-11-28T21:31:07.934Z,8.22
2022-11-28T21:33:34.709Z,8.35
2022-11-28T21:36:02.736Z,8.57
2022-11-28T21:38:30.601Z,8.54
2022-11-28T21:40:57.518Z,8.33
2022-11-28T21:43:24.049Z,8.71
2022-11-28T21:45:51.184Z,8.54
2022-11-28T21:48:17.693Z,8.58
2022-11-28T21:50:50.957Z,8.24
2022-11-28T21:53:17.961Z,8.13
2022-11-28T21:55:45.089Z,8.13
2022-11-28T21:58:11.514Z,8.46
2022-11-28T22:00:53.190Z,7.95
2022-11-28T22:03:22.100Z,8.07
2022-11-28T22:05:48.706Z,8.17
2022-11-28T22:08:15.141Z,8.35
2022-11-28T22:10:41.668Z,8.15
2022-11-28T22:13:08.106Z,8.20
2022-11-28T22:15:34.523Z,8.12
2022-11-28T22:18:00.940Z,8.42
2022-11-28T22:20:27.419Z,8.17
2022-11-28T22:22:53.872Z,8.21
2022-11-28T22:25:20.274Z,8.26
2022-11-28T22:27:46.700Z,8.36
2022-11-28T22:30:13.261Z,8.43
2022-11-28T22:32:39.718Z,8.52
2022-11-28T22:35:09.158Z,8.26
2022-11-28T22:37:36.619Z,8.43
2022-11-28T22:40:04.161Z,8.38
2022-11-28T22:42:30.652Z,8.57
2022-11-28T22:44:57.038Z,8.76
2022-11-28T22:47:23.577Z,8.83
2022-11-28T22:49:50.056Z,8.77
2022-11-28T22:52:16.875Z,8.66
2022-11-28T22:54:43.613Z,8.61
2022-11-28T22:57:10.293Z,8.68
2022-11-28T22:59:38.540Z,8.68
2022-11-28T23:02:05.267Z,8.67
2022-11-28T23:04:31.838Z,8.64
2022-11-28T23:06:58.280Z,8.54
2022-11-28T23:09:24.733Z,8.33
2022-11-28T23:11:51.163Z,8.41
2022-11-28T23:14:17.647Z,8.54
2022-11-28T23:16:45.207Z,8.32
2022-11-28T23:19:14.993Z,8.11
2022-11-28T23:21:43.428Z,7.85
2022-11-28T23:24:13.973Z,8.35
2022-11-28T23:26:40.719Z,7.84
2022-11-28T23:29:07.387Z,8.30
2022-11-28T23:31:37.342Z,7.92
2022-11-28T23:34:04.246Z,8.05
2022-11-28T23:36:38.522Z,8.14
2022-11-28T23:39:12.269Z,8.06
2022-11-28T23:41:38.988Z,8.44
2022-11-28T23:44:05.983Z,8.07
2022-11-28T23:46:33.269Z,8.38
2022-11-28T23:48:59.695Z,8.37
2022-11-28T23:51:26.438Z,8.32
2022-11-28T23:53:53.655Z,8.10
2022-11-28T23:56:26.631Z,8.14
2022-11-28T23:58:53.992Z,8.21
